Time;durP1;ratioP1;P1;durP2;ratioP2;P2;SDS_P1;SDS_P2;PMS_P1;PMS_P2;Temp;Humidity;BMP_temperature;BMP_pressure;BME280_temperature;BME280_humidity;BME280_pressure;Samples;Min_cycle;Max_cycle;Signal;HPM_P1;HPM_P2
2023/05/20 00:00:59;;;;;;;8.77;4.60;;;;;;;8.75;100.00;97387.63;4986002;28;20034;-50
2023/05/20 00:03:26;;;;;;;11.05;4.50;;;;;;;8.64;100.00;97386.59;4983777;28;20034;-48
2023/05/20 00:05:53;;;;;;;8.23;4.68;;;;;;;8.61;100.00;97392.47;4986768;28;20310;-49
2023/05/20 00:08:19;;;;;;;8.38;4.90;;;;;;;8.61;100.00;97389.78;4985781;28;20069;-54
2023/05/20 00:10:46;;;;;;;8.73;4.75;;;;;;;8.67;100.00;97394.22;4984741;28;20049;-46
2023/05/20 00:13:12;;;;;;;6.78;4.90;;;;;;;8.45;100.00;97388.63;4985484;28;20149;-49
2023/05/20 00:15:39;;;;;;;8.40;5.68;;;;;;;8.44;100.00;97384.28;4984359;28;21181;-50
2023/05/20 00:18:06;;;;;;;9.57;4.53;;;;;;;8.41;100.00;97377.47;4982151;28;20038;-50
2023/05/20 00:20:33;;;;;;;8.40;4.68;;;;;;;8.31;100.00;97385.34;4990081;28;20046;-51
2023/05/20 00:22:59;;;;;;;8.60;5.00;;;;;;;8.20;100.00;97385.16;4985761;28;20038;-52
2023/05/20 00:25:26;;;;;;;7.45;4.63;;;;;;;8.14;100.00;97385.28;4986404;28;20049;-55
2023/05/20 00:27:52;;;;;;;9.00;4.30;;;;;;;8.06;100.00;97386.41;4986813;28;20042;-51
2023/05/20 00:30:19;;;;;;;9.00;4.95;;;;;;;8.16;100.00;97381.28;4985666;28;20049;-52
2023/05/20 00:32:46;;;;;;;6.35;4.70;;;;;;;8.19;100.00;97385.38;4988174;28;20038;-51
2023/05/20 00:35:13;;;;;;;7.03;4.78;;;;;;;8.09;100.00;97383.25;4988377;28;20104;-51
2023/05/20 00:37:39;;;;;;;6.68;4.47;;;;;;;8.14;100.00;97387.97;4986390;28;20132;-51
2023/05/20 00:40:06;;;;;;;8.13;4.95;;;;;;;8.06;100.00;97389.13;4988247;28;20069;-49
2023/05/20 00:42:33;;;;;;;7.50;4.50;;;;;;;8.06;100.00;97387.25;4992950;28;20129;-52
2023/05/20 00:45:00;;;;;;;7.25;4.90;;;;;;;7.97;100.00;97388.66;4985271;28;20048;-51
2023/05/20 00:47:31;;;;;;;7.97;4.90;;;;;;;7.88;100.00;97390.88;4987485;28;20072;-54
2023/05/20 00:49:59;;;;;;;7.60;4.68;;;;;;;7.88;100.00;97388.19;4989120;28;20606;-52
2023/05/20 00:52:29;;;;;;;7.00;4.78;;;;;;;7.93;100.00;97387.50;4989475;28;20041;-53
2023/05/20 00:54:56;;;;;;;8.30;4.70;;;;;;;7.89;100.00;97381.72;4988354;28;20252;-55
2023/05/20 00:57:23;;;;;;;7.80;5.20;;;;;;;7.91;100.00;97370.72;4987759;28;20057;-53
2023/05/20 00:59:49;;;;;;;7.78;5.35;;;;;;;7.91;100.00;97385.03;4984325;28;20502;-55
2023/05/20 01:02:16;;;;;;;7.20;4.80;;;;;;;7.87;100.00;97385.72;4988382;28;20425;-53
2023/05/20 01:04:46;;;;;;;10.77;5.22;;;;;;;7.89;100.00;97381.72;4990552;28;20039;-52
2023/05/20 01:07:16;;;;;;;8.20;5.20;;;;;;;8.03;100.00;97382.31;4990857;28;20049;-49
2023/05/20 01:09:44;;;;;;;7.22;5.47;;;;;;;8.05;100.00;97380.22;4991935;28;20188;-54
2023/05/20 01:12:17;;;;;;;7.38;5.18;;;;;;;8.13;100.00;97373.66;4989446;28;20076;-52
2023/05/20 01:14:50;;;;;;;8.02;4.60;;;;;;;8.14;100.00;97374.47;4988090;28;20329;-49
2023/05/20 01:17:19;;;;;;;;;;;;;;;8.25;100.00;97375.53;4992684;28;20117;-49
2023/05/20 01:19:47;;;;;;;9.40;5.45;;;;;;;8.23;100.00;97375.75;4988629;28;20405;-51
2023/05/20 01:22:14;;;;;;;8.80;5.53;;;;;;;8.20;100.00;97376.22;4989366;28;20196;-46
2023/05/20 01:24:43;;;;;;;8.05;4.65;;;;;;;8.23;100.00;97378.44;4970237;28;20056;-52
2023/05/20 01:27:12;;;;;;;8.38;5.07;;;;;;;8.27;100.00;97379.63;4993847;28;20044;-47
2023/05/20 01:29:41;;;;;;;8.98;5.22;;;;;;;8.35;100.00;97373.03;4987838;28;20200;-50
2023/05/20 01:32:37;;;;;;;9.40;5.03;;;;;;;8.42;100.00;97370.19;4986427;28;20281;-50
2023/05/20 01:35:07;;;;;;;7.45;5.25;;;;;;;8.48;100.00;97371.13;4985288;28;20454;-50
2023/05/20 01:37:37;;;;;;;8.70;5.05;;;;;;;8.59;100.00;97362.22;4985791;28;20038;-48
2023/05/20 01:40:07;;;;;;;7.78;5.03;;;;;;;8.59;100.00;97364.91;4984749;28;20298;-53
2023/05/20 01:42:34;;;;;;;7.32;4.78;;;;;;;8.57;100.00;97365.16;4971024;28;20050;-54
2023/05/20 01:45:02;;;;;;;9.75;5.15;;;;;;;8.58;100.00;97358.69;4979915;28;20050;-50
2023/05/20 01:47:28;;;;;;;9.38;4.95;;;;;;;8.60;100.00;97361.16;4986197;28;20287;-55
2023/05/20 01:49:55;;;;;;;8.13;5.07;;;;;;;8.61;100.00;97365.50;4983273;28;20042;-51
2023/05/20 01:52:22;;;;;;;9.23;5.03;;;;;;;8.76;100.00;97361.44;4985393;28;20081;-55
2023/05/20 01:54:52;;;;;;;7.93;5.10;;;;;;;8.77;100.00;97360.41;4987436;28;20046;-52
2023/05/20 01:57:20;;;;;;;7.93;4.72;;;;;;;8.87;100.00;97357.06;4986204;28;20042;-50
2023/05/20 01:59:48;;;;;;;7.80;5.13;;;;;;;9.20;100.00;97361.72;4978590;28;20034;-50
2023/05/20 02:02:15;;;;;;;7.68;4.60;;;;;;;9.60;100.00;97357.25;4984539;28;20581;-47
2023/05/20 02:04:48;;;;;;;7.00;4.75;;;;;;;9.84;100.00;97356.25;4987289;28;20050;-50
2023/05/20 02:07:15;;;;;;;9.50;4.40;;;;;;;10.02;100.00;97355.16;4989956;28;20034;-51
2023/05/20 02:09:42;;;;;;;5.55;3.80;;;;;;;10.14;100.00;97357.78;4985782;28;20042;-50
2023/05/20 02:12:15;;;;;;;6.10;3.70;;;;;;;10.22;100.00;97361.94;4988998;28;20119;-51
2023/05/20 02:14:46;;;;;;;8.63;4.10;;;;;;;10.26;100.00;97342.25;4982646;28;20046;-48
2023/05/20 02:17:17;;;;;;;6.03;4.38;;;;;;;10.29;100.00;97351.75;4984594;28;20472;-48
2023/05/20 02:19:45;;;;;;;5.32;3.72;;;;;;;10.36;100.00;97343.44;4980795;28;20038;-47
2023/05/20 02:22:13;;;;;;;6.63;4.03;;;;;;;10.38;100.00;97338.59;4984705;28;20479;-50
2023/05/20 02:24:42;;;;;;;5.75;4.05;;;;;;;10.42;100.00;97342.44;4983878;28;20563;-48
2023/05/20 02:27:09;;;;;;;9.07;4.40;;;;;;;10.43;100.00;97341.34;4983342;28;20516;-50
2023/05/20 02:29:36;;;;;;;7.60;3.85;;;;;;;10.40;100.00;97342.66;4982200;28;20049;-52
2023/05/20 02:32:03;;;;;;;6.15;4.00;;;;;;;10.40;100.00;97337.25;4989583;28;20390;-50
2023/05/20 02:34:32;;;;;;;7.25;4.55;;;;;;;10.37;100.00;97336.94;4985126;28;20046;-50
2023/05/20 02:36:58;;;;;;;8.93;4.47;;;;;;;10.37;100.00;97336.94;4984148;28;20038;-50
2023/05/20 02:39:27;;;;;;;7.43;4.72;;;;;;;10.37;100.00;97335.06;4982913;28;20141;-48
2023/05/20 02:41:53;;;;;;;7.82;4.35;;;;;;;10.50;100.00;97335.78;4990015;28;20042;-51
2023/05/20 02:44:20;;;;;;;7.07;4.47;;;;;;;10.46;100.00;97334.66;4985377;28;20042;-53
2023/05/20 02:46:47;;;;;;;7.10;5.20;;;;;;;10.46;100.00;97334.66;4996517;28;20073;-50
2023/05/20 02:49:13;;;;;;;9.73;4.47;;;;;;;10.44;100.00;97340.31;4981166;28;20157;-53
2023/05/20 02:51:40;;;;;;;8.50;4.65;;;;;;;10.34;100.00;97327.44;4973765;28;20047;-48
2023/05/20 02:54:07;;;;;;;8.70;5.07;;;;;;;10.36;100.00;97333.41;4989544;28;20038;-48
2023/05/20 02:56:33;;;;;;;8.73;5.38;;;;;;;10.33;100.00;97328.53;4987779;28;20034;-48
2023/05/20 02:59:02;;;;;;;7.90;5.28;;;;;;;10.27;100.00;97326.81;4986672;28;20042;-51
2023/05/20 03:01:28;;;;;;;6.50;4.40;;;;;;;10.20;100.00;97331.56;4979967;28;20039;-51
2023/05/20 03:03:55;;;;;;;5.32;4.13;;;;;;;10.02;100.00;97342.47;4983718;28;20049;-51
2023/05/20 03:06:21;;;;;;;6.05;3.70;;;;;;;9.69;100.00;97335.22;4986964;28;20794;-53
2023/05/20 03:08:48;;;;;;;8.52;4.30;;;;;;;9.38;100.00;97340.94;4985884;28;20047;-51
2023/05/20 03:11:15;;;;;;;8.80;4.72;;;;;;;9.23;100.00;97342.34;4983728;28;20488;-48
2023/05/20 03:13:41;;;;;;;8.57;4.57;;;;;;;9.20;100.00;97342.00;4980143;28;20132;-51
2023/05/20 03:16:08;;;;;;;7.78;4.88;;;;;;;9.20;100.00;97339.28;4987634;28;20042;-49
2023/05/20 03:18:34;;;;;;;6.43;4.53;;;;;;;9.19;100.00;97334.94;4988969;28;20096;-49
2023/05/20 03:21:01;;;;;;;7.68;4.80;;;;;;;9.11;100.00;97338.88;4980259;28;20447;-52
2023/05/20 03:23:28;;;;;;;7.47;5.32;;;;;;;9.00;100.00;97337.06;4984155;28;20067;-49
2023/05/20 03:25:55;;;;;;;7.22;4.82;;;;;;;8.94;100.00;97339.66;4977105;28;20529;-46
2023/05/20 03:28:21;;;;;;;7.60;4.93;;;;;;;9.05;100.00;97345.25;4982951;28;20502;-49
2023/05/20 03:30:48;;;;;;;8.48;5.05;;;;;;;9.02;100.00;97333.03;4985868;28;20077;-47
2023/05/20 03:33:15;;;;;;;8.35;4.53;;;;;;;9.00;100.00;97345.97;4982905;28;20034;-47
2023/05/20 03:35:42;;;;;;;7.53;4.82;;;;;;;9.02;100.00;97348.41;4980462;28;20148;-54
2023/05/20 03:38:08;;;;;;;8.10;5.18;;;;;;;9.08;100.00;97344.75;4985985;28;20085;-51
2023/05/20 03:40:37;;;;;;;7.75;5.20;;;;;;;9.04;100.00;97344.44;4982576;28;20443;-54
2023/05/20 03:43:04;;;;;;;6.93;4.72;;;;;;;9.08;100.00;97347.47;4985960;28;20038;-55
2023/05/20 03:45:33;;;;;;;6.53;4.25;;;;;;;9.02;100.00;97351.94;4985482;28;20042;-53
2023/05/20 03:48:05;;;;;;;7.40;4.80;;;;;;;9.07;100.00;97352.03;4984485;28;20237;-53
2023/05/20 03:50:33;;;;;;;6.63;4.93;;;;;;;9.15;100.00;97345.44;4974814;28;20050;-54
2023/05/20 03:53:00;;;;;;;7.30;4.75;;;;;;;9.23;100.00;97347.75;4981480;28;20410;-54
2023/05/20 03:55:33;;;;;;;6.65;4.68;;;;;;;9.30;100.00;97349.47;4978257;28;20046;-53
2023/05/20 03:58:00;;;;;;;5.97;4.43;;;;;;;9.40;100.00;97343.41;4980499;28;20046;-50
2023/05/20 04:00:30;;;;;;;7.95;4.43;;;;;;;9.46;100.00;97351.34;4980444;28;20488;-53
2023/05/20 04:02:57;;;;;;;7.30;4.45;;;;;;;9.50;100.00;97351.66;4979499;28;20432;-51
2023/05/20 04:05:24;;;;;;;6.43;4.47;;;;;;;9.54;100.00;97344.72;4987301;28;20368;-52
2023/05/20 04:07:50;;;;;;;6.75;4.30;;;;;;;9.63;100.00;97350.53;5001325;28;20042;-51
2023/05/20 04:10:19;;;;;;;6.90;4.47;;;;;;;9.78;100.00;97341.00;4986085;28;20525;-50
2023/05/20 04:12:46;;;;;;;6.22;4.53;;;;;;;9.89;100.00;97348.22;4976453;28;20489;-48
2023/05/20 04:15:13;;;;;;;7.35;4.55;;;;;;;10.05;100.00;97345.72;4980047;28;20683;-54
2023/05/20 04:18:00;;;;;;;7.55;4.78;;;;;;;10.20;100.00;97343.22;4979969;28;20061;-51
2023/05/20 04:20:27;;;;;;;6.95;4.07;;;;;;;10.31;100.00;97351.50;4976096;28;20137;-56
2023/05/20 04:22:56;;;;;;;10.27;4.57;;;;;;;10.35;100.00;97336.38;4988047;28;20046;-54
2023/05/20 04:25:22;;;;;;;6.75;4.45;;;;;;;10.45;100.00;97338.41;4984349;28;20825;-56
2023/05/20 04:27:49;;;;;;;6.75;4.05;;;;;;;10.51;100.00;97350.97;4985144;28;20620;-52
2023/05/20 04:30:17;;;;;;;7.18;4.53;;;;;;;10.49;100.00;97337.69;4982848;28;20074;-50
2023/05/20 04:32:43;;;;;;;6.10;3.83;;;;;;;10.50;100.00;97333.06;4982996;28;20050;-50
2023/05/20 04:35:12;;;;;;;6.63;4.18;;;;;;;10.53;100.00;97327.16;4989220;28;20038;-49
2023/05/20 04:37:43;;;;;;;7.93;4.53;;;;;;;10.50;100.00;97325.78;4987680;28;20216;-52
2023/05/20 04:40:11;;;;;;;7.45;4.68;;;;;;;10.51;100.00;97322.00;4982078;28;20532;-51
2023/05/20 04:42:38;;;;;;;8.15;4.70;;;;;;;10.49;100.00;97326.03;4983249;28;20054;-51
2023/05/20 04:45:07;;;;;;;5.20;3.92;;;;;;;10.52;100.00;97318.22;4982978;28;20038;-54
2023/05/20 04:47:37;;;;;;;6.57;4.00;;;;;;;10.60;100.00;97324.25;4980996;28;20046;-51
2023/05/20 04:50:12;;;;;;;7.57;4.10;;;;;;;10.61;100.00;97312.38;4980684;28;20203;-53
2023/05/20 04:52:42;;;;;;;6.78;4.25;;;;;;;10.72;100.00;97316.00;4982153;28;20054;-53
2023/05/20 04:55:10;;;;;;;10.73;4.50;;;;;;;10.79;100.00;97311.19;4982684;28;20056;-52
2023/05/20 04:57:40;;;;;;;7.03;4.35;;;;;;;10.87;100.00;97312.63;4984720;28;20084;-49
2023/05/20 05:00:10;;;;;;;5.93;4.10;;;;;;;10.94;100.00;97310.53;4985248;28;20574;-49
2023/05/20 05:02:37;;;;;;;6.30;4.03;;;;;;;11.03;100.00;97311.69;4988051;28;20112;-51
2023/05/20 05:05:05;;;;;;;10.18;4.38;;;;;;;11.23;100.00;97322.97;4985259;28;20058;-53
2023/05/20 05:07:32;;;;;;;7.80;4.22;;;;;;;11.39;100.00;97323.94;4990540;28;20058;-52
2023/05/20 05:09:58;;;;;;;7.75;4.30;;;;;;;11.55;99.46;97325.72;4986543;28;20397;-49
2023/05/20 05:12:28;;;;;;;6.45;4.00;;;;;;;11.69;98.84;97317.94;4985316;28;20045;-53
2023/05/20 05:14:54;;;;;;;6.25;3.88;;;;;;;11.90;97.65;97319.97;4988465;28;20137;-50
2023/05/20 05:17:21;;;;;;;6.15;4.10;;;;;;;11.95;97.28;97314.56;4997775;28;20045;-52
2023/05/20 05:19:48;;;;;;;6.05;3.90;;;;;;;12.09;96.15;97317.69;4980269;28;20051;-53
2023/05/20 05:22:15;;;;;;;6.43;4.13;;;;;;;12.08;96.27;97314.13;4990454;28;20038;-53
2023/05/20 05:24:41;;;;;;;7.47;4.18;;;;;;;11.95;96.72;97311.88;4984801;28;20050;-53
2023/05/20 05:27:08;;;;;;;7.65;4.60;;;;;;;11.98;96.79;97300.50;4984723;28;20382;-52
2023/05/20 05:29:35;;;;;;;7.20;3.80;;;;;;;12.09;96.40;97304.13;4979596;28;20469;-50
2023/05/20 05:32:01;;;;;;;6.68;4.00;;;;;;;12.12;96.07;97286.47;4982308;28;20050;-53
2023/05/20 05:34:28;;;;;;;5.45;3.80;;;;;;;12.20;94.72;97285.97;4981096;28;20054;-51
2023/05/20 05:36:54;;;;;;;6.50;4.25;;;;;;;12.21;94.66;97290.31;4976523;28;20034;-52
2023/05/20 05:39:21;;;;;;;7.13;4.10;;;;;;;12.13;95.53;97297.06;4983869;28;20042;-54
2023/05/20 05:41:48;;;;;;;7.65;4.22;;;;;;;12.10;95.42;97292.97;4982360;28;20044;-53
2023/05/20 05:44:14;;;;;;;6.90;4.22;;;;;;;12.18;95.65;97298.97;4983907;28;20049;-54
2023/05/20 05:46:41;;;;;;;5.63;4.00;;;;;;;12.11;95.73;97304.66;4981042;28;20050;-53
2023/05/20 05:49:08;;;;;;;6.95;4.03;;;;;;;12.26;94.89;97298.47;4978778;28;20423;-55
2023/05/20 05:51:35;;;;;;;6.78;3.92;;;;;;;12.41;94.18;97295.00;4960854;28;20255;-55
2023/05/20 05:54:04;;;;;;;8.30;4.20;;;;;;;12.38;93.97;97298.25;4982364;28;20046;-53
2023/05/20 05:56:31;;;;;;;6.40;4.22;;;;;;;12.46;93.93;97297.72;4985618;28;20165;-56
2023/05/20 05:58:57;;;;;;;6.35;4.18;;;;;;;12.59;93.28;97292.88;4984375;28;20104;-55
2023/05/20 06:01:24;;;;;;;8.50;4.55;;;;;;;12.53;93.83;97285.81;4982063;28;20100;-54
2023/05/20 06:03:51;;;;;;;6.30;4.55;;;;;;;12.55;94.64;97289.06;4982289;28;20096;-55
2023/05/20 06:06:18;;;;;;;6.82;4.57;;;;;;;12.64;93.47;97294.81;4978993;28;20050;-51
2023/05/20 06:08:47;;;;;;;9.23;4.85;;;;;;;12.79;92.10;97296.75;4980490;28;20057;-55
2023/05/20 06:11:14;;;;;;;8.65;4.13;;;;;;;12.78;92.51;97301.38;4944850;28;20113;-54
2023/05/20 06:13:41;;;;;;;7.88;4.65;;;;;;;12.59;93.23;97296.44;4980712;28;20050;-54
2023/05/20 06:16:07;;;;;;;8.25;4.10;;;;;;;12.64;93.71;97292.09;4983207;28;20057;-54
2023/05/20 06:18:34;;;;;;;7.18;4.25;;;;;;;12.66;93.99;97295.34;4980514;28;20042;-53
2023/05/20 06:21:03;;;;;;;7.68;4.93;;;;;;;12.64;93.93;97290.19;4984172;28;20042;-54
2023/05/20 06:23:30;;;;;;;6.88;4.15;;;;;;;12.70;93.98;97293.72;4979788;28;20057;-55
2023/05/20 06:25:59;;;;;;;6.97;4.68;;;;;;;12.96;92.32;97296.50;4980195;28;20444;-57
2023/05/20 06:28:26;;;;;;;7.75;4.32;;;;;;;13.13;91.09;97288.91;4986887;28;20112;-48
2023/05/20 06:30:54;;;;;;;7.10;4.47;;;;;;;13.32;90.59;97290.28;4989171;28;20137;-55
2023/05/20 06:33:25;;;;;;;7.20;4.47;;;;;;;13.23;91.19;97288.09;4974525;28;20047;-55
2023/05/20 06:35:54;;;;;;;8.85;4.55;;;;;;;13.42;89.90;97282.16;4977115;28;20047;-57
2023/05/20 06:38:21;;;;;;;8.15;4.68;;;;;;;13.36;91.14;97285.94;4983144;28;20042;-55
2023/05/20 06:40:50;;;;;;;8.60;4.30;;;;;;;13.38;91.51;97268.25;4975299;28;20046;-54
2023/05/20 06:43:17;;;;;;;6.78;4.20;;;;;;;13.60;89.46;97274.53;4979852;28;20038;-53
2023/05/20 06:46:03;;;;;;;6.72;4.20;;;;;;;13.74;88.72;97270.16;4981000;28;20077;-52
2023/05/20 06:48:36;;;;;;;8.43;4.65;;;;;;;13.58;91.07;97274.81;4976170;28;20751;-55
2023/05/20 06:51:03;;;;;;;6.88;4.40;;;;;;;13.52;91.14;97267.72;4980049;28;20050;-53
2023/05/20 06:53:30;;;;;;;7.10;4.80;;;;;;;13.77;90.17;97271.50;4981626;28;20073;-54
2023/05/20 06:55:56;;;;;;;8.48;5.95;;;;;;;13.81;89.75;97271.78;4976376;28;20053;-52
2023/05/20 06:58:23;;;;;;;7.97;5.07;;;;;;;13.95;89.17;97275.53;4980481;28;20070;-55
2023/05/20 07:00:51;;;;;;;7.30;5.07;;;;;;;13.79;89.02;97269.34;4981487;28;20049;-55
2023/05/20 07:03:17;;;;;;;8.50;5.13;;;;;;;13.76;89.76;97265.25;4979080;28;20084;-56
2023/05/20 07:05:45;;;;;;;7.50;4.63;;;;;;;13.71;89.72;97265.25;4981687;28;20137;-56
2023/05/20 07:08:12;;;;;;;7.55;5.40;;;;;;;13.77;89.58;97260.63;4978702;28;20038;-56
2023/05/20 07:10:39;;;;;;;8.02;5.28;;;;;;;13.68;90.29;97265.00;4981397;28;20054;-55
2023/05/20 07:13:07;;;;;;;8.52;5.80;;;;;;;13.69;90.02;97258.44;4980843;28;20637;-57
2023/05/20 07:15:33;;;;;;;8.20;5.10;;;;;;;13.83;89.82;97256.81;4983170;28;20441;-55
2023/05/20 07:18:00;;;;;;;10.32;5.63;;;;;;;14.04;88.30;97251.28;4981908;28;20521;-53
2023/05/20 07:20:28;;;;;;;8.10;5.10;;;;;;;14.15;88.36;97247.44;4979162;28;20076;-55
2023/05/20 07:22:56;;;;;;;6.93;4.50;;;;;;;14.31;87.91;97241.94;4982688;28;20050;-54
2023/05/20 07:25:30;;;;;;;7.07;5.00;;;;;;;14.61;86.01;97240.13;4978898;28;20104;-54
2023/05/20 07:27:58;;;;;;;8.25;5.47;;;;;;;14.78;85.58;97238.97;4983238;28;20540;-52
2023/05/20 07:30:26;;;;;;;7.45;5.13;;;;;;;14.69;84.98;97231.38;4978806;28;20049;-55
2023/05/20 07:33:17;;;;;;;7.47;5.32;;;;;;;14.83;84.21;97233.50;4980124;28;21009;-53
2023/05/20 07:35:44;;;;;;;8.82;5.28;;;;;;;14.70;85.93;97233.00;4982323;28;20140;-52
2023/05/20 07:38:11;;;;;;;8.00;5.40;;;;;;;14.53;85.13;97230.63;4983921;28;20462;-50
2023/05/20 07:40:40;;;;;;;7.88;5.25;;;;;;;14.60;84.94;97234.97;4979208;28;20046;-54
2023/05/20 07:43:08;;;;;;;8.27;5.53;;;;;;;14.49;85.84;97228.78;4979007;28;20633;-50
2023/05/20 07:45:35;;;;;;;7.43;5.47;;;;;;;14.59;85.10;97225.97;4975570;28;20513;-51
2023/05/20 07:48:04;;;;;;;9.68;5.35;;;;;;;14.82;84.43;97229.16;4981925;28;20042;-54
2023/05/20 07:50:30;;;;;;;8.13;5.38;;;;;;;14.91;84.86;97229.34;4964059;28;20062;-55
2023/05/20 07:52:57;;;;;;;7.18;5.20;;;;;;;14.92;83.56;97225.50;4941144;28;20526;-51
2023/05/20 07:55:26;;;;;;;8.30;5.30;;;;;;;15.07;83.72;97216.41;4966405;28;20133;-53
2023/05/20 07:57:54;;;;;;;9.23;5.25;;;;;;;15.18;83.25;97211.66;4984036;28;20034;-50
2023/05/20 08:00:21;;;;;;;6.97;4.82;;;;;;;15.24;81.72;97221.44;4979984;28;20777;-55
2023/05/20 08:02:48;;;;;;;6.88;5.18;;;;;;;15.48;79.64;97213.31;4977917;28;20038;-53
2023/05/20 08:05:21;;;;;;;10.07;5.63;;;;;;;15.69;81.16;97215.00;4976528;28;20046;-51
2023/05/20 08:07:48;;;;;;;7.25;4.88;;;;;;;15.89;79.41;97214.00;4984063;28;20659;-52
2023/05/20 08:10:15;;;;;;;6.60;4.57;;;;;;;15.99;79.81;97202.13;4976415;28;20046;-56
2023/05/20 08:12:45;;;;;;;7.07;4.93;;;;;;;15.99;78.84;97207.59;4980188;28;20258;-54
2023/05/20 08:15:12;;;;;;;6.95;4.70;;;;;;;15.73;81.70;97203.22;4977814;28;20101;-55
2023/05/20 08:17:39;;;;;;;8.95;5.15;;;;;;;15.73;80.40;97213.31;4982478;28;20048;-56
2023/05/20 08:20:11;;;;;;;6.90;4.90;;;;;;;15.89;79.67;97210.44;4990043;28;20561;-54
2023/05/20 08:22:38;;;;;;;9.50;5.40;;;;;;;16.07;80.01;97211.63;4978488;28;20572;-54
2023/05/20 08:25:07;;;;;;;9.80;5.45;;;;;;;16.13;77.58;97207.72;4978426;28;20046;-53
2023/05/20 08:27:35;;;;;;;6.78;4.57;;;;;;;16.21;77.00;97211.69;4981078;28;20053;-56
2023/05/20 08:30:04;;;;;;;7.32;4.60;;;;;;;16.51;76.41;97207.75;4981419;28;20549;-54
2023/05/20 08:32:30;;;;;;;7.00;4.90;;;;;;;16.34;74.72;97200.06;4990487;28;20057;-56
2023/05/20 08:35:00;;;;;;;7.57;5.25;;;;;;;16.43;75.75;97202.94;4979551;28;20051;-55
2023/05/20 08:37:28;;;;;;;7.88;4.97;;;;;;;16.45;76.04;97211.69;4979884;28;20038;-51
2023/05/20 08:39:55;;;;;;;6.55;5.18;;;;;;;16.48;76.33;97216.53;4980241;28;20550;-52
2023/05/20 08:42:23;;;;;;;7.63;5.03;;;;;;;16.47;76.39;97216.84;4983690;28;20125;-52
2023/05/20 08:44:53;;;;;;;8.10;5.70;;;;;;;16.12;77.73;97222.47;4979603;28;20141;-56
2023/05/20 08:47:20;;;;;;;9.05;5.38;;;;;;;16.01;78.36;97218.25;4981284;28;20054;-53
2023/05/20 08:49:48;;;;;;;7.00;5.05;;;;;;;15.91;79.06;97222.69;4979354;28;20042;-56
2023/05/20 08:52:16;;;;;;;7.90;5.20;;;;;;;16.20;77.91;97232.75;4981557;28;20070;-57
2023/05/20 08:54:47;;;;;;;7.13;4.55;;;;;;;16.34;76.61;97227.41;4976268;28;20070;-55
2023/05/20 08:57:14;;;;;;;6.35;4.82;;;;;;;16.21;76.99;97223.44;4981260;28;20513;-57
2023/05/20 08:59:43;;;;;;;7.63;5.25;;;;;;;16.34;76.11;97216.47;4978660;28;20121;-57
2023/05/20 09:02:10;;;;;;;8.45;4.90;;;;;;;16.46;75.40;97229.69;4982673;28;20053;-53
2023/05/20 09:04:37;;;;;;;7.97;5.25;;;;;;;16.24;76.39;97217.41;4980164;28;20576;-55
2023/05/20 09:07:04;;;;;;;7.78;5.38;;;;;;;16.40;76.47;97225.38;4983112;28;20117;-52
2023/05/20 09:09:32;;;;;;;7.85;5.15;;;;;;;16.36;76.97;97224.34;4979717;28;20038;-56
2023/05/20 09:12:00;;;;;;;8.32;5.45;;;;;;;16.43;76.16;97222.06;4982297;28;20049;-53
2023/05/20 09:14:27;;;;;;;11.18;5.55;;;;;;;16.75;74.39;97223.28;4986823;28;20421;-54
2023/05/20 09:16:54;;;;;;;6.88;5.32;;;;;;;16.68;74.41;97220.09;4984557;28;20035;-54
2023/05/20 09:19:23;;;;;;;8.95;5.22;;;;;;;17.05;73.23;97219.56;4983383;28;20043;-56
2023/05/20 09:21:53;;;;;;;7.13;4.85;;;;;;;17.02;72.66;97219.03;4980922;28;20065;-56
2023/05/20 09:24:25;;;;;;;8.73;5.50;;;;;;;17.01;72.11;97216.59;4987792;28;20093;-57
2023/05/20 09:26:51;;;;;;;7.88;5.72;;;;;;;17.25;72.82;97205.56;4980725;28;20625;-55
2023/05/20 09:29:20;;;;;;;8.40;5.13;;;;;;;17.49;70.95;97212.81;4985458;28;20042;-54
2023/05/20 09:31:48;;;;;;;7.47;5.10;;;;;;;17.67;70.47;97200.16;4983263;28;20046;-54
2023/05/20 09:34:15;;;;;;;7.50;4.88;;;;;;;17.50;70.78;97200.75;4986919;28;20453;-54
2023/05/20 09:36:43;;;;;;;8.88;4.65;;;;;;;17.37;70.86;97207.00;4981705;28;20050;-54
2023/05/20 09:39:24;;;;;;;9.13;5.63;;;;;;;17.37;70.10;97199.63;4983964;28;20054;-54
2023/05/20 09:41:56;;;;;;;8.15;5.43;;;;;;;17.23;70.55;97198.75;4983809;28;20053;-53
2023/05/20 09:44:23;;;;;;;7.25;5.07;;;;;;;17.05;72.63;97195.78;4980545;28;20047;-59
2023/05/20 09:46:51;;;;;;;7.38;5.13;;;;;;;17.08;72.54;97189.72;4983004;28;20038;-55
2023/05/20 09:49:22;;;;;;;7.07;5.00;;;;;;;17.19;72.05;97193.09;4983519;28;20039;-53
2023/05/20 09:51:49;;;;;;;8.02;5.85;;;;;;;17.32;70.90;97193.41;4987359;28;20042;-54
2023/05/20 09:54:18;;;;;;;6.50;4.63;;;;;;;17.31;71.35;97191.81;4991048;28;20162;-57
2023/05/20 09:56:46;;;;;;;7.25;5.00;;;;;;;17.39;70.19;97191.91;4984389;28;20058;-55
2023/05/20 09:59:15;;;;;;;7.38;4.97;;;;;;;17.67;69.38;97188.41;4982603;28;20105;-57
2023/05/20 10:01:44;;;;;;;7.30;4.95;;;;;;;17.55;69.58;97186.97;4981975;28;20046;-56
2023/05/20 10:04:14;;;;;;;9.77;4.75;;;;;;;17.94;68.70;97181.28;4984756;28;20054;-57
2023/05/20 10:06:59;;;;;;;9.00;5.70;;;;;;;18.12;67.92;97182.31;4978400;28;20050;-53
2023/05/20 10:10:00;;;;;;;7.97;4.70;;;;;;;18.48;68.42;97168.94;4985357;28;20498;-54
2023/05/20 10:12:35;;;;;;;7.70;5.28;;;;;;;18.31;65.70;97165.75;4980416;28;20081;-52
2023/05/20 10:15:20;;;;;;;8.30;4.95;;;;;;;18.07;66.08;97171.44;4984074;28;20046;-56
2023/05/20 10:18:01;;;;;;;5.97;4.50;;;;;;;18.55;64.75;97164.69;4985472;28;20045;-56
2023/05/20 10:20:28;;;;;;;5.70;4.53;;;;;;;18.84;63.38;97160.69;4982205;28;20141;-57
2023/05/20 10:22:58;;;;;;;6.72;4.75;;;;;;;18.90;62.95;97166.88;4980973;28;20138;-54
2023/05/20 10:25:28;;;;;;;7.40;4.30;;;;;;;19.12;62.71;97165.25;4981662;28;20117;-55
2023/05/20 10:28:07;;;;;;;7.50;5.18;;;;;;;18.97;63.63;97167.25;4984486;28;20090;-56
2023/05/20 10:30:34;;;;;;;7.07;4.85;;;;;;;19.24;62.91;97156.47;4982368;28;20061;-55
2023/05/20 10:33:04;;;;;;;8.52;5.10;;;;;;;18.96;62.96;97151.91;4980633;28;20046;-56
2023/05/20 10:35:31;;;;;;;8.05;4.65;;;;;;;19.12;61.11;97150.75;4979813;28;20104;-55
2023/05/20 10:38:10;;;;;;;6.35;4.20;;;;;;;19.01;61.21;97152.91;4982204;28;20069;-56
2023/05/20 10:40:36;;;;;;;5.72;3.88;;;;;;;19.17;60.19;97154.16;4982289;28;20073;-56
2023/05/20 10:43:11;;;;;;;7.68;4.63;;;;;;;19.13;60.99;97149.63;4979746;28;20046;-56
2023/05/20 10:45:55;;;;;;;8.45;4.60;;;;;;;19.28;60.90;97145.66;4977988;28;20042;-57
2023/05/20 10:48:31;;;;;;;5.75;4.10;;;;;;;19.18;60.28;97144.81;4984220;28;20038;-56
2023/05/20 10:51:02;;;;;;;6.72;4.80;;;;;;;19.12;59.85;97145.28;4989002;28;20046;-54
2023/05/20 10:53:38;;;;;;;7.35;4.45;;;;;;;19.22;60.85;97145.00;4982491;28;20052;-55
2023/05/20 10:56:05;;;;;;;7.40;4.60;;;;;;;19.15;61.91;97136.38;4980439;28;20053;-54
2023/05/20 10:58:38;;;;;;;6.28;4.45;;;;;;;19.29;60.93;97145.38;4981594;28;20085;-54
2023/05/20 11:01:05;;;;;;;6.22;4.95;;;;;;;19.51;59.75;97149.19;4967433;28;20054;-54
2023/05/20 11:03:33;;;;;;;7.20;4.43;;;;;;;19.57;60.69;97139.66;4966556;28;20101;-54
2023/05/20 11:06:00;;;;;;;8.23;4.57;;;;;;;19.82;59.36;97134.56;4976491;28;20692;-56
2023/05/20 11:08:30;;;;;;;5.88;4.30;;;;;;;19.69;60.80;97121.78;4986894;28;20395;-54
2023/05/20 11:10:57;;;;;;;6.50;4.43;;;;;;;19.89;58.71;97118.44;4981079;28;20049;-54
2023/05/20 11:13:25;;;;;;;6.72;4.80;;;;;;;19.95;58.46;97132.84;4977584;28;20414;-54
2023/05/20 11:15:52;;;;;;;6.40;4.93;;;;;;;19.77;60.09;97121.00;4982172;28;20549;-53
2023/05/20 11:18:18;;;;;;;7.22;5.00;;;;;;;19.56;60.34;97118.81;4978322;28;20049;-53
2023/05/20 11:20:46;;;;;;;6.13;4.75;;;;;;;19.58;60.27;97122.06;4984976;28;20045;-54
2023/05/20 11:23:14;;;;;;;6.90;4.60;;;;;;;19.68;60.38;97112.72;4983838;28;20132;-52
2023/05/20 11:25:41;;;;;;;7.50;5.03;;;;;;;19.97;58.77;97118.78;4979202;28;20053;-55
2023/05/20 11:28:18;;;;;;;5.55;4.38;;;;;;;19.91;59.38;97109.88;4984430;28;20048;-57
2023/05/20 11:30:46;;;;;;;6.07;4.45;;;;;;;20.10;58.12;97104.13;4981747;28;20038;-50
2023/05/20 11:33:15;;;;;;;7.15;5.15;;;;;;;20.13;58.06;97102.69;4984156;28;20046;-54
2023/05/20 11:35:47;;;;;;;6.30;4.38;;;;;;;20.26;57.64;97109.13;4981667;28;20524;-56
2023/05/20 11:38:14;;;;;;;6.90;4.82;;;;;;;20.42;57.56;97104.00;4982136;28;20066;-55